sensor_id;sensor_type;location;lat;lon;timestamp;P1;durP1;ratioP1;P2;durP2;ratioP2
52188;SDS011;38162;45.926;13.608;2022-11-20T00:02:01;2.17;;;0.40;;
52188;SDS011;38162;45.926;13.608;2022-11-20T00:04:27;1.00;;;0.50;;
52188;SDS011;38162;45.926;13.608;2022-11-20T00:06:52;1.23;;;0.50;;
52188;SDS011;38162;45.926;13.608;2022-11-20T00:09:18;0.60;;;0.30;;
52188;SDS011;38162;45.926;13.608;2022-11-20T00:11:44;0.35;;;0.22;;
52188;SDS011;38162;45.926;13.608;2022-11-20T00:14:09;6.53;;;0.30;;
52188;SDS011;38162;45.926;13.608;2022-11-20T00:16:35;0.68;;;0.32;;
52188;SDS011;38162;45.926;13.608;2022-11-20T00:19:01;0.85;;;0.38;;
52188;SDS011;38162;45.926;13.608;2022-11-20T00:21:28;0.80;;;0.30;;
52188;SDS011;38162;45.926;13.608;2022-11-20T00:23:54;0.30;;;0.30;;
52188;SDS011;38162;45.926;13.608;2022-11-20T00:26:21;0.50;;;0.30;;
52188;SDS011;38162;45.926;13.608;2022-11-20T00:28:52;0.82;;;0.38;;
52188;SDS011;38162;45.926;13.608;2022-11-20T00:31:19;0.75;;;0.40;;
52188;SDS011;38162;45.926;13.608;2022-11-20T00:33:45;0.97;;;0.40;;
52188;SDS011;38162;45.926;13.608;2022-11-20T00:36:18;0.43;;;0.30;;
52188;SDS011;38162;45.926;13.608;2022-11-20T00:38:45;0.57;;;0.40;;
52188;SDS011;38162;45.926;13.608;2022-11-20T00:41:13;1.03;;;0.40;;
52188;SDS011;38162;45.926;13.608;2022-11-20T00:43:40;0.40;;;0.22;;
52188;SDS011;38162;45.926;13.608;2022-11-20T00:46:08;0.22;;;0.20;;
52188;SDS011;38162;45.926;13.608;2022-11-20T00:48:33;0.30;;;0.20;;
52188;SDS011;38162;45.926;13.608;2022-11-20T00:51:00;0.10;;;0.10;;
52188;SDS011;38162;45.926;13.608;2022-11-20T00:53:25;0.90;;;0.40;;
52188;SDS011;38162;45.926;13.608;2022-11-20T00:55:55;0.30;;;0.20;;
52188;SDS011;38162;45.926;13.608;2022-11-20T00:58:23;2.40;;;0.30;;
52188;SDS011;38162;45.926;13.608;2022-11-20T01:00:50;0.93;;;0.10;;
52188;SDS011;38162;45.926;13.608;2022-11-20T01:03:16;0.20;;;0.10;;
52188;SDS011;38162;45.926;13.608;2022-11-20T01:05:43;0.10;;;0.10;;
52188;SDS011;38162;45.926;13.608;2022-11-20T01:08:09;0.17;;;0.17;;
52188;SDS011;38162;45.926;13.608;2022-11-20T01:10:35;0.20;;;0.20;;
52188;SDS011;38162;45.926;13.608;2022-11-20T01:13:01;0.53;;;0.10;;
52188;SDS011;38162;45.926;13.608;2022-11-20T01:15:45;0.60;;;0.20;;
52188;SDS011;38162;45.926;13.608;2022-11-20T01:18:11;0.10;;;0.10;;
52188;SDS011;38162;45.926;13.608;2022-11-20T01:20:37;0.57;;;0.15;;
52188;SDS011;38162;45.926;13.608;2022-11-20T01:23:03;0.20;;;0.20;;
52188;SDS011;38162;45.926;13.608;2022-11-20T01:25:29;0.20;;;0.10;;
52188;SDS011;38162;45.926;13.608;2022-11-20T01:27:55;0.30;;;0.10;;
52188;SDS011;38162;45.926;13.608;2022-11-20T01:30:20;0.10;;;0.10;;
52188;SDS011;38162;45.926;13.608;2022-11-20T01:32:46;0.10;;;0.10;;
52188;SDS011;38162;45.926;13.608;2022-11-20T01:35:12;2.23;;;0.30;;
52188;SDS011;38162;45.926;13.608;2022-11-20T01:37:37;1.80;;;0.20;;
52188;SDS011;38162;45.926;13.608;2022-11-20T01:40:03;0.10;;;0.10;;
52188;SDS011;38162;45.926;13.608;2022-11-20T01:42:29;0.20;;;0.10;;
52188;SDS011;38162;45.926;13.608;2022-11-20T01:48:18;0.25;;;0.20;;
52188;SDS011;38162;45.926;13.608;2022-11-20T01:50:47;0.20;;;0.20;;
52188;SDS011;38162;45.926;13.608;2022-11-20T01:53:13;0.77;;;0.20;;
52188;SDS011;38162;45.926;13.608;2022-11-20T01:55:47;0.83;;;0.10;;
52188;SDS011;38162;45.926;13.608;2022-11-20T01:58:16;0.20;;;0.10;;
52188;SDS011;38162;45.926;13.608;2022-11-20T02:00:45;1.20;;;0.20;;
52188;SDS011;38162;45.926;13.608;2022-11-20T02:03:12;0.30;;;0.20;;
52188;SDS011;38162;45.926;13.608;2022-11-20T02:08:43;0.57;;;0.20;;
52188;SDS011;38162;45.926;13.608;2022-11-20T02:11:09;0.30;;;0.20;;
52188;SDS011;38162;45.926;13.608;2022-11-20T02:13:35;0.60;;;0.30;;
52188;SDS011;38162;45.926;13.608;2022-11-20T02:16:11;0.30;;;0.20;;
52188;SDS011;38162;45.926;13.608;2022-11-20T02:18:42;0.70;;;0.20;;
52188;SDS011;38162;45.926;13.608;2022-11-20T02:21:33;0.80;;;0.20;;
52188;SDS011;38162;45.926;13.608;2022-11-20T02:24:03;0.20;;;0.13;;
52188;SDS011;38162;45.926;13.608;2022-11-20T02:29:00;0.60;;;0.10;;
52188;SDS011;38162;45.926;13.608;2022-11-20T02:31:27;1.97;;;0.20;;
52188;SDS011;38162;45.926;13.608;2022-11-20T02:33:56;0.20;;;0.20;;
52188;SDS011;38162;45.926;13.608;2022-11-20T02:36:23;0.83;;;0.20;;
52188;SDS011;38162;45.926;13.608;2022-11-20T02:38:51;0.10;;;0.10;;
52188;SDS011;38162;45.926;13.608;2022-11-20T02:41:17;0.27;;;0.20;;
52188;SDS011;38162;45.926;13.608;2022-11-20T02:43:43;0.20;;;0.20;;
52188;SDS011;38162;45.926;13.608;2022-11-20T02:46:08;0.10;;;0.10;;
52188;SDS011;38162;45.926;13.608;2022-11-20T02:48:34;0.20;;;0.20;;
52188;SDS011;38162;45.926;13.608;2022-11-20T02:51:00;0.43;;;0.30;;
52188;SDS011;38162;45.926;13.608;2022-11-20T02:53:26;0.20;;;0.10;;
52188;SDS011;38162;45.926;13.608;2022-11-20T02:55:52;0.27;;;0.20;;
52188;SDS011;38162;45.926;13.608;2022-11-20T02:58:18;0.20;;;0.10;;
52188;SDS011;38162;45.926;13.608;2022-11-20T03:00:43;0.23;;;0.10;;
52188;SDS011;38162;45.926;13.608;2022-11-20T03:03:09;0.40;;;0.10;;
52188;SDS011;38162;45.926;13.608;2022-11-20T03:05:35;0.83;;;0.13;;
52188;SDS011;38162;45.926;13.608;2022-11-20T03:08:01;0.10;;;0.10;;
52188;SDS011;38162;45.926;13.608;2022-11-20T03:10:26;0.10;;;0.10;;
52188;SDS011;38162;45.926;13.608;2022-11-20T03:12:53;0.13;;;0.10;;
52188;SDS011;38162;45.926;13.608;2022-11-20T03:15:20;0.10;;;0.10;;
52188;SDS011;38162;45.926;13.608;2022-11-20T03:17:47;1.03;;;0.10;;
52188;SDS011;38162;45.926;13.608;2022-11-20T03:20:12;0.20;;;0.10;;
52188;SDS011;38162;45.926;13.608;2022-11-20T03:22:38;0.10;;;0.10;;
52188;SDS011;38162;45.926;13.608;2022-11-20T03:25:04;0.63;;;0.20;;
52188;SDS011;38162;45.926;13.608;2022-11-20T03:27:33;1.33;;;0.03;;
52188;SDS011;38162;45.926;13.608;2022-11-20T03:29:59;0.33;;;0.10;;
52188;SDS011;38162;45.926;13.608;2022-11-20T03:32:25;0.37;;;0.20;;
52188;SDS011;38162;45.926;13.608;2022-11-20T03:34:51;0.20;;;0.20;;
52188;SDS011;38162;45.926;13.608;2022-11-20T03:37:17;0.20;;;0.20;;
52188;SDS011;38162;45.926;13.608;2022-11-20T03:39:42;0.20;;;0.20;;
52188;SDS011;38162;45.926;13.608;2022-11-20T03:42:08;0.20;;;0.17;;
52188;SDS011;38162;45.926;13.608;2022-11-20T03:44:54;0.30;;;0.13;;
52188;SDS011;38162;45.926;13.608;2022-11-20T03:47:20;0.47;;;0.20;;
52188;SDS011;38162;45.926;13.608;2022-11-20T03:49:46;0.10;;;0.10;;
52188;SDS011;38162;45.926;13.608;2022-11-20T03:52:11;3.23;;;0.33;;
52188;SDS011;38162;45.926;13.608;2022-11-20T03:54:37;0.23;;;0.10;;
52188;SDS011;38162;45.926;13.608;2022-11-20T03:57:03;0.13;;;0.13;;
52188;SDS011;38162;45.926;13.608;2022-11-20T03:59:28;0.20;;;0.20;;
52188;SDS011;38162;45.926;13.608;2022-11-20T04:01:54;0.10;;;0.10;;
52188;SDS011;38162;45.926;13.608;2022-11-20T04:04:20;0.10;;;0.10;;
52188;SDS011;38162;45.926;13.608;2022-11-20T04:06:45;1.13;;;0.20;;
52188;SDS011;38162;45.926;13.608;2022-11-20T04:09:11;0.27;;;0.20;;
52188;SDS011;38162;45.926;13.608;2022-11-20T04:11:39;0.30;;;0.20;;
52188;SDS011;38162;45.926;13.608;2022-11-20T04:14:05;0.10;;;0.10;;
52188;SDS011;38162;45.926;13.608;2022-11-20T04:16:36;0.60;;;0.20;;
52188;SDS011;38162;45.926;13.608;2022-11-20T04:19:04;0.13;;;0.13;;
52188;SDS011;38162;45.926;13.608;2022-11-20T04:21:31;0.73;;;0.10;;
52188;SDS011;38162;45.926;13.608;2022-11-20T04:23:57;0.20;;;0.20;;
52188;SDS011;38162;45.926;13.608;2022-11-20T04:26:24;0.10;;;0.10;;
52188;SDS011;38162;45.926;13.608;2022-11-20T04:28:51;0.23;;;0.20;;
52188;SDS011;38162;45.926;13.608;2022-11-20T04:31:18;0.03;;;0.03;;
52188;SDS011;38162;45.926;13.608;2022-11-20T04:33:46;0.10;;;0.10;;
52188;SDS011;38162;45.926;13.608;2022-11-20T04:36:13;0.30;;;0.20;;
52188;SDS011;38162;45.926;13.608;2022-11-20T04:38:40;0.20;;;0.20;;
52188;SDS011;38162;45.926;13.608;2022-11-20T04:41:07;0.10;;;0.10;;
52188;SDS011;38162;45.926;13.608;2022-11-20T04:43:37;0.20;;;0.13;;
52188;SDS011;38162;45.926;13.608;2022-11-20T04:46:02;0.40;;;0.20;;
52188;SDS011;38162;45.926;13.608;2022-11-20T04:48:28;0.20;;;0.20;;
52188;SDS011;38162;45.926;13.608;2022-11-20T04:50:55;0.23;;;0.17;;
52188;SDS011;38162;45.926;13.608;2022-11-20T04:53:21;0.93;;;0.20;;
52188;SDS011;38162;45.926;13.608;2022-11-20T04:55:47;0.20;;;0.20;;
52188;SDS011;38162;45.926;13.608;2022-11-20T04:58:13;2.53;;;0.30;;
52188;SDS011;38162;45.926;13.608;2022-11-20T05:00:39;0.13;;;0.10;;
52188;SDS011;38162;45.926;13.608;2022-11-20T05:03:05;0.10;;;0.10;;
52188;SDS011;38162;45.926;13.608;2022-11-20T05:05:30;0.27;;;0.20;;
52188;SDS011;38162;45.926;13.608;2022-11-20T05:07:57;0.20;;;0.20;;
52188;SDS011;38162;45.926;13.608;2022-11-20T05:10:23;0.20;;;0.20;;
52188;SDS011;38162;45.926;13.608;2022-11-20T05:12:50;0.87;;;0.20;;
52188;SDS011;38162;45.926;13.608;2022-11-20T05:15:16;0.30;;;0.20;;
52188;SDS011;38162;45.926;13.608;2022-11-20T05:17:46;0.20;;;0.20;;
52188;SDS011;38162;45.926;13.608;2022-11-20T05:20:16;0.33;;;0.30;;
52188;SDS011;38162;45.926;13.608;2022-11-20T05:22:42;0.60;;;0.20;;
52188;SDS011;38162;45.926;13.608;2022-11-20T05:25:08;0.17;;;0.17;;
52188;SDS011;38162;45.926;13.608;2022-11-20T05:27:34;1.00;;;0.20;;
52188;SDS011;38162;45.926;13.608;2022-11-20T05:29:59;1.63;;;0.40;;
52188;SDS011;38162;45.926;13.608;2022-11-20T05:32:25;2.63;;;0.23;;
52188;SDS011;38162;45.926;13.608;2022-11-20T05:34:51;0.43;;;0.20;;
52188;SDS011;38162;45.926;13.608;2022-11-20T05:37:17;1.90;;;0.37;;
52188;SDS011;38162;45.926;13.608;2022-11-20T05:39:43;4.30;;;0.80;;
52188;SDS011;38162;45.926;13.608;2022-11-20T05:42:08;0.90;;;0.60;;
52188;SDS011;38162;45.926;13.608;2022-11-20T05:44:52;0.57;;;0.40;;
52188;SDS011;38162;45.926;13.608;2022-11-20T05:47:18;0.80;;;0.40;;
52188;SDS011;38162;45.926;13.608;2022-11-20T05:49:44;3.40;;;0.30;;
52188;SDS011;38162;45.926;13.608;2022-11-20T05:52:09;0.97;;;0.30;;
52188;SDS011;38162;45.926;13.608;2022-11-20T05:54:35;1.60;;;0.40;;
52188;SDS011;38162;45.926;13.608;2022-11-20T05:57:01;0.90;;;0.50;;
52188;SDS011;38162;45.926;13.608;2022-11-20T05:59:26;0.50;;;0.30;;
52188;SDS011;38162;45.926;13.608;2022-11-20T06:01:52;0.63;;;0.40;;
52188;SDS011;38162;45.926;13.608;2022-11-20T06:04:18;0.60;;;0.40;;
52188;SDS011;38162;45.926;13.608;2022-11-20T06:06:43;0.40;;;0.40;;
52188;SDS011;38162;45.926;13.608;2022-11-20T06:09:09;0.57;;;0.37;;
52188;SDS011;38162;45.926;13.608;2022-11-20T06:11:35;0.53;;;0.30;;
52188;SDS011;38162;45.926;13.608;2022-11-20T06:14:00;0.47;;;0.37;;
52188;SDS011;38162;45.926;13.608;2022-11-20T06:16:26;1.40;;;0.60;;
52188;SDS011;38162;45.926;13.608;2022-11-20T06:18:52;0.70;;;0.50;;
52188;SDS011;38162;45.926;13.608;2022-11-20T06:21:18;0.80;;;0.50;;
52188;SDS011;38162;45.926;13.608;2022-11-20T06:23:45;1.47;;;0.80;;
52188;SDS011;38162;45.926;13.608;2022-11-20T06:26:12;1.23;;;0.70;;
52188;SDS011;38162;45.926;13.608;2022-11-20T06:28:43;1.50;;;0.60;;
52188;SDS011;38162;45.926;13.608;2022-11-20T06:31:10;1.00;;;0.60;;
52188;SDS011;38162;45.926;13.608;2022-11-20T06:33:37;2.00;;;0.73;;
52188;SDS011;38162;45.926;13.608;2022-11-20T06:36:03;0.63;;;0.50;;
52188;SDS011;38162;45.926;13.608;2022-11-20T06:38:29;0.77;;;0.40;;
52188;SDS011;38162;45.926;13.608;2022-11-20T06:40:55;0.50;;;0.40;;
52188;SDS011;38162;45.926;13.608;2022-11-20T06:43:21;0.70;;;0.40;;
52188;SDS011;38162;45.926;13.608;2022-11-20T06:45:51;0.40;;;0.37;;
52188;SDS011;38162;45.926;13.608;2022-11-20T06:48:18;1.43;;;0.37;;
52188;SDS011;38162;45.926;13.608;2022-11-20T06:50:44;0.73;;;0.43;;
52188;SDS011;38162;45.926;13.608;2022-11-20T06:53:09;0.30;;;0.30;;
52188;SDS011;38162;45.926;13.608;2022-11-20T06:55:35;0.70;;;0.50;;
52188;SDS011;38162;45.926;13.608;2022-11-20T06:58:01;0.53;;;0.37;;
52188;SDS011;38162;45.926;13.608;2022-11-20T07:00:26;0.43;;;0.30;;
52188;SDS011;38162;45.926;13.608;2022-11-20T07:02:52;0.50;;;0.40;;
52188;SDS011;38162;45.926;13.608;2022-11-20T07:05:18;0.47;;;0.40;;
52188;SDS011;38162;45.926;13.608;2022-11-20T07:07:43;1.27;;;0.33;;
52188;SDS011;38162;45.926;13.608;2022-11-20T07:10:09;0.37;;;0.33;;
52188;SDS011;38162;45.926;13.608;2022-11-20T07:12:35;0.30;;;0.20;;
52188;SDS011;38162;45.926;13.608;2022-11-20T07:15:01;0.70;;;0.33;;
52188;SDS011;38162;45.926;13.608;2022-11-20T07:17:26;0.60;;;0.50;;
52188;SDS011;38162;45.926;13.608;2022-11-20T07:19:52;0.70;;;0.40;;
52188;SDS011;38162;45.926;13.608;2022-11-20T07:22:18;0.77;;;0.40;;
52188;SDS011;38162;45.926;13.608;2022-11-20T07:24:47;0.17;;;0.13;;
52188;SDS011;38162;45.926;13.608;2022-11-20T07:27:13;0.27;;;0.20;;
52188;SDS011;38162;45.926;13.608;2022-11-20T07:29:39;1.03;;;0.40;;
52188;SDS011;38162;45.926;13.608;2022-11-20T07:32:05;0.40;;;0.23;;
52188;SDS011;38162;45.926;13.608;2022-11-20T07:34:30;1.73;;;0.40;;
52188;SDS011;38162;45.926;13.608;2022-11-20T07:36:56;1.57;;;0.40;;
52188;SDS011;38162;45.926;13.608;2022-11-20T07:39:22;1.83;;;0.70;;
52188;SDS011;38162;45.926;13.608;2022-11-20T07:41:47;1.47;;;0.73;;
52188;SDS011;38162;45.926;13.608;2022-11-20T07:44:13;6.63;;;2.00;;
52188;SDS011;38162;45.926;13.608;2022-11-20T07:46:38;3.67;;;0.90;;
52188;SDS011;38162;45.926;13.608;2022-11-20T07:49:04;0.63;;;0.50;;
52188;SDS011;38162;45.926;13.608;2022-11-20T07:51:30;2.70;;;0.60;;
52188;SDS011;38162;45.926;13.608;2022-11-20T07:53:55;2.17;;;0.70;;
52188;SDS011;38162;45.926;13.608;2022-11-20T07:56:21;1.70;;;0.80;;
52188;SDS011;38162;45.926;13.608;2022-11-20T07:58:50;6.27;;;0.70;;
52188;SDS011;38162;45.926;13.608;2022-11-20T08:01:15;1.20;;;0.70;;
52188;SDS011;38162;45.926;13.608;2022-11-20T08:03:41;1.50;;;0.70;;
52188;SDS011;38162;45.926;13.608;2022-11-20T08:06:07;2.00;;;0.80;;
52188;SDS011;38162;45.926;13.608;2022-11-20T08:08:32;1.77;;;0.80;;
52188;SDS011;38162;45.926;13.608;2022-11-20T08:10:58;6.13;;;1.80;;
52188;SDS011;38162;45.926;13.608;2022-11-20T08:13:43;1.10;;;0.70;;
52188;SDS011;38162;45.926;13.608;2022-11-20T08:16:27;1.73;;;0.97;;
52188;SDS011;38162;45.926;13.608;2022-11-20T08:18:53;2.43;;;0.97;;
52188;SDS011;38162;45.926;13.608;2022-11-20T08:21:19;1.13;;;0.83;;
52188;SDS011;38162;45.926;13.608;2022-11-20T08:23:45;2.07;;;1.07;;
52188;SDS011;38162;45.926;13.608;2022-11-20T08:26:11;2.40;;;1.50;;
52188;SDS011;38162;45.926;13.608;2022-11-20T08:28:36;2.37;;;1.47;;
52188;SDS011;38162;45.926;13.608;2022-11-20T08:31:02;2.33;;;1.30;;
52188;SDS011;38162;45.926;13.608;2022-11-20T08:33:28;1.33;;;0.77;;
52188;SDS011;38162;45.926;13.608;2022-11-20T08:35:58;1.40;;;0.60;;
52188;SDS011;38162;45.926;13.608;2022-11-20T08:38:25;2.03;;;0.70;;
52188;SDS011;38162;45.926;13.608;2022-11-20T08:40:50;0.57;;;0.50;;
52188;SDS011;38162;45.926;13.608;2022-11-20T08:43:34;0.73;;;0.43;;
52188;SDS011;38162;45.926;13.608;2022-11-20T08:46:00;1.03;;;0.50;;
52188;SDS011;38162;45.926;13.608;2022-11-20T08:48:26;1.40;;;0.43;;
52188;SDS011;38162;45.926;13.608;2022-11-20T08:50:51;0.70;;;0.67;;
52188;SDS011;38162;45.926;13.608;2022-11-20T08:53:17;4.47;;;0.60;;
52188;SDS011;38162;45.926;13.608;2022-11-20T08:55:43;1.10;;;0.60;;
52188;SDS011;38162;45.926;13.608;2022-11-20T08:58:08;1.15;;;0.65;;
52188;SDS011;38162;45.926;13.608;2022-11-20T09:00:34;2.47;;;1.27;;
52188;SDS011;38162;45.926;13.608;2022-11-20T09:03:00;1.40;;;1.00;;
52188;SDS011;38162;45.926;13.608;2022-11-20T09:05:26;1.60;;;0.83;;
52188;SDS011;38162;45.926;13.608;2022-11-20T09:07:55;1.23;;;0.82;;
52188;SDS011;38162;45.926;13.608;2022-11-20T09:10:21;0.77;;;0.63;;
52188;SDS011;38162;45.926;13.608;2022-11-20T09:12:50;2.20;;;0.70;;
52188;SDS011;38162;45.926;13.608;2022-11-20T09:15:16;1.13;;;0.60;;
52188;SDS011;38162;45.926;13.608;2022-11-20T09:17:47;1.23;;;0.70;;
52188;SDS011;38162;45.926;13.608;2022-11-20T09:20:18;1.23;;;0.70;;
52188;SDS011;38162;45.926;13.608;2022-11-20T09:22:44;0.77;;;0.50;;
52188;SDS011;38162;45.926;13.608;2022-11-20T09:25:10;0.73;;;0.50;;
52188;SDS011;38162;45.926;13.608;2022-11-20T09:27:36;1.37;;;0.40;;
52188;SDS011;38162;45.926;13.608;2022-11-20T09:30:02;0.40;;;0.33;;
52188;SDS011;38162;45.926;13.608;2022-11-20T09:32:28;1.00;;;0.30;;
52188;SDS011;38162;45.926;13.608;2022-11-20T09:34:54;1.17;;;0.50;;
52188;SDS011;38162;45.926;13.608;2022-11-20T09:37:20;2.47;;;0.82;;
52188;SDS011;38162;45.926;13.608;2022-11-20T09:39:45;0.50;;;0.33;;
52188;SDS011;38162;45.926;13.608;2022-11-20T09:42:17;1.63;;;0.50;;
52188;SDS011;38162;45.926;13.608;2022-11-20T09:47:31;0.95;;;0.70;;
52188;SDS011;38162;45.926;13.608;2022-11-20T09:55:43;2.97;;;0.52;;
52188;SDS011;38162;45.926;13.608;2022-11-20T10:01:07;0.70;;;0.50;;
52188;SDS011;38162;45.926;13.608;2022-11-20T10:03:45;0.57;;;0.37;;
52188;SDS011;38162;45.926;13.608;2022-11-20T10:06:19;0.70;;;0.50;;
52188;SDS011;38162;45.926;13.608;2022-11-20T10:08:54;0.57;;;0.40;;
52188;SDS011;38162;45.926;13.608;2022-11-20T10:17:03;1.50;;;0.40;;
52188;SDS011;38162;45.926;13.608;2022-11-20T10:25:15;1.27;;;0.65;;
52188;SDS011;38162;45.926;13.608;2022-11-20T10:30:38;3.13;;;0.50;;
52188;SDS011;38162;45.926;13.608;2022-11-20T10:33:15;0.50;;;0.40;;
52188;SDS011;38162;45.926;13.608;2022-11-20T10:35:45;0.52;;;0.50;;
52188;SDS011;38162;45.926;13.608;2022-11-20T10:38:40;2.08;;;0.80;;
52188;SDS011;38162;45.926;13.608;2022-11-20T10:41:23;1.05;;;0.50;;
52188;SDS011;38162;45.926;13.608;2022-11-20T10:44:05;1.17;;;0.55;;
52188;SDS011;38162;45.926;13.608;2022-11-20T10:47:04;0.68;;;0.47;;
52188;SDS011;38162;45.926;13.608;2022-11-20T10:49:33;1.50;;;0.65;;
52188;SDS011;38162;45.926;13.608;2022-11-20T10:54:58;0.77;;;0.50;;
52188;SDS011;38162;45.926;13.608;2022-11-20T11:00:37;1.40;;;0.32;;
52188;SDS011;38162;45.926;13.608;2022-11-20T11:03:07;0.50;;;0.45;;
52188;SDS011;38162;45.926;13.608;2022-11-20T11:09:09;0.60;;;0.40;;
52188;SDS011;38162;45.926;13.608;2022-11-20T11:11:40;0.60;;;0.50;;
52188;SDS011;38162;45.926;13.608;2022-11-20T11:14:06;1.05;;;0.52;;
52188;SDS011;38162;45.926;13.608;2022-11-20T11:16:40;0.98;;;0.60;;
52188;SDS011;38162;45.926;13.608;2022-11-20T11:19:18;3.28;;;0.60;;
52188;SDS011;38162;45.926;13.608;2022-11-20T11:21:46;1.02;;;0.50;;
52188;SDS011;38162;45.926;13.608;2022-11-20T11:24:24;1.23;;;0.60;;
52188;SDS011;38162;45.926;13.608;2022-11-20T11:26:54;0.80;;;0.60;;
52188;SDS011;38162;45.926;13.608;2022-11-20T11:29:21;1.63;;;0.73;;
52188;SDS011;38162;45.926;13.608;2022-11-20T11:31:47;1.85;;;0.85;;
52188;SDS011;38162;45.926;13.608;2022-11-20T11:34:16;1.85;;;1.00;;
52188;SDS011;38162;45.926;13.608;2022-11-20T11:36:47;0.90;;;0.70;;
52188;SDS011;38162;45.926;13.608;2022-11-20T11:39:21;0.90;;;0.60;;
52188;SDS011;38162;45.926;13.608;2022-11-20T11:41:48;1.63;;;0.68;;
52188;SDS011;38162;45.926;13.608;2022-11-20T11:44:18;1.00;;;0.50;;
52188;SDS011;38162;45.926;13.608;2022-11-20T11:47:08;0.60;;;0.50;;
52188;SDS011;38162;45.926;13.608;2022-11-20T11:49:48;0.73;;;0.47;;
52188;SDS011;38162;45.926;13.608;2022-11-20T11:52:17;0.65;;;0.52;;
52188;SDS011;38162;45.926;13.608;2022-11-20T11:54:55;0.85;;;0.40;;
52188;SDS011;38162;45.926;13.608;2022-11-20T12:00:09;1.05;;;0.50;;
52188;SDS011;38162;45.926;13.608;2022-11-20T12:10:21;1.02;;;0.40;;
52188;SDS011;38162;45.926;13.608;2022-11-20T12:15:35;0.60;;;0.40;;
52188;SDS011;38162;45.926;13.608;2022-11-20T12:18:04;1.05;;;0.73;;
52188;SDS011;38162;45.926;13.608;2022-11-20T12:20:41;1.58;;;0.75;;
52188;SDS011;38162;45.926;13.608;2022-11-20T12:25:57;0.60;;;0.45;;
52188;SDS011;38162;45.926;13.608;2022-11-20T12:28:47;0.65;;;0.30;;
52188;SDS011;38162;45.926;13.608;2022-11-20T12:31:31;1.67;;;0.67;;
52188;SDS011;38162;45.926;13.608;2022-11-20T12:37:02;1.00;;;0.70;;
52188;SDS011;38162;45.926;13.608;2022-11-20T12:39:51;0.93;;;0.65;;
52188;SDS011;38162;45.926;13.608;2022-11-20T13:05:27;0.85;;;0.68;;
52188;SDS011;38162;45.926;13.608;2022-11-20T13:07:54;1.75;;;0.50;;
52188;SDS011;38162;45.926;13.608;2022-11-20T13:13:12;0.57;;;0.40;;
52188;SDS011;38162;45.926;13.608;2022-11-20T13:19:02;1.48;;;0.60;;
52188;SDS011;38162;45.926;13.608;2022-11-20T13:21:37;1.58;;;0.80;;
52188;SDS011;38162;45.926;13.608;2022-11-20T13:24:05;0.77;;;0.40;;
52188;SDS011;38162;45.926;13.608;2022-11-20T13:26:32;1.20;;;0.70;;
52188;SDS011;38162;45.926;13.608;2022-11-20T13:29:09;1.65;;;0.60;;
52188;SDS011;38162;45.926;13.608;2022-11-20T13:31:37;0.55;;;0.40;;
52188;SDS011;38162;45.926;13.608;2022-11-20T13:34:09;1.15;;;0.88;;
52188;SDS011;38162;45.926;13.608;2022-11-20T13:36:47;0.88;;;0.40;;
52188;SDS011;38162;45.926;13.608;2022-11-20T13:39:27;2.25;;;0.85;;
52188;SDS011;38162;45.926;13.608;2022-11-20T13:42:00;0.60;;;0.40;;
52188;SDS011;38162;45.926;13.608;2022-11-20T13:44:38;1.20;;;0.85;;
52188;SDS011;38162;45.926;13.608;2022-11-20T13:47:26;1.10;;;0.60;;
52188;SDS011;38162;45.926;13.608;2022-11-20T13:49:53;1.48;;;0.80;;
52188;SDS011;38162;45.926;13.608;2022-11-20T13:55:38;0.35;;;0.32;;
52188;SDS011;38162;45.926;13.608;2022-11-20T13:58:24;1.35;;;0.50;;
52188;SDS011;38162;45.926;13.608;2022-11-20T14:01:35;0.70;;;0.50;;
52188;SDS011;38162;45.926;13.608;2022-11-20T14:03:46;1.58;;;0.55;;
52188;SDS011;38162;45.926;13.608;2022-11-20T14:06:21;1.27;;;0.55;;
52188;SDS011;38162;45.926;13.608;2022-11-20T14:08:52;1.08;;;0.50;;
52188;SDS011;38162;45.926;13.608;2022-11-20T14:11:22;1.20;;;0.60;;
52188;SDS011;38162;45.926;13.608;2022-11-20T14:14:13;0.73;;;0.57;;
52188;SDS011;38162;45.926;13.608;2022-11-20T14:16:42;1.63;;;0.75;;
52188;SDS011;38162;45.926;13.608;2022-11-20T14:19:30;0.65;;;0.45;;
52188;SDS011;38162;45.926;13.608;2022-11-20T14:24:48;1.08;;;0.70;;
52188;SDS011;38162;45.926;13.608;2022-11-20T14:27:25;1.27;;;0.60;;
52188;SDS011;38162;45.926;13.608;2022-11-20T14:29:50;1.08;;;0.50;;
52188;SDS011;38162;45.926;13.608;2022-11-20T14:32:17;1.38;;;0.82;;
52188;SDS011;38162;45.926;13.608;2022-11-20T14:34:44;1.38;;;0.60;;
52188;SDS011;38162;45.926;13.608;2022-11-20T14:37:13;1.17;;;0.60;;
52188;SDS011;38162;45.926;13.608;2022-11-20T14:39:49;1.23;;;0.88;;
52188;SDS011;38162;45.926;13.608;2022-11-20T14:42:23;1.77;;;0.70;;
52188;SDS011;38162;45.926;13.608;2022-11-20T14:44:51;0.80;;;0.60;;
52188;SDS011;38162;45.926;13.608;2022-11-20T14:47:21;1.30;;;0.60;;
52188;SDS011;38162;45.926;13.608;2022-11-20T14:49:55;0.98;;;0.68;;
52188;SDS011;38162;45.926;13.608;2022-11-20T14:52:23;1.15;;;0.73;;
52188;SDS011;38162;45.926;13.608;2022-11-20T14:54:55;0.85;;;0.60;;
52188;SDS011;38162;45.926;13.608;2022-11-20T15:02:39;1.38;;;0.77;;
52188;SDS011;38162;45.926;13.608;2022-11-20T15:05:09;1.45;;;0.75;;
52188;SDS011;38162;45.926;13.608;2022-11-20T15:07:36;1.15;;;0.60;;
52188;SDS011;38162;45.926;13.608;2022-11-20T15:10:11;1.13;;;0.63;;
52188;SDS011;38162;45.926;13.608;2022-11-20T15:15:31;1.48;;;0.90;;
52188;SDS011;38162;45.926;13.608;2022-11-20T15:17:57;1.13;;;0.77;;
52188;SDS011;38162;45.926;13.608;2022-11-20T15:20:25;1.25;;;0.77;;
52188;SDS011;38162;45.926;13.608;2022-11-20T15:22:56;1.67;;;0.75;;
52188;SDS011;38162;45.926;13.608;2022-11-20T15:25:22;0.82;;;0.60;;
52188;SDS011;38162;45.926;13.608;2022-11-20T15:27:50;0.90;;;0.70;;
52188;SDS011;38162;45.926;13.608;2022-11-20T15:30:20;3.42;;;0.75;;
52188;SDS011;38162;45.926;13.608;2022-11-20T15:32:46;1.10;;;0.90;;
52188;SDS011;38162;45.926;13.608;2022-11-20T15:35:13;1.25;;;0.80;;
52188;SDS011;38162;45.926;13.608;2022-11-20T15:37:39;3.88;;;1.33;;
52188;SDS011;38162;45.926;13.608;2022-11-20T15:40:05;4.20;;;2.00;;
52188;SDS011;38162;45.926;13.608;2022-11-20T15:42:32;2.65;;;1.60;;
52188;SDS011;38162;45.926;13.608;2022-11-20T15:44:58;6.45;;;4.75;;
52188;SDS011;38162;45.926;13.608;2022-11-20T15:47:31;17.98;;;13.50;;
52188;SDS011;38162;45.926;13.608;2022-11-20T15:49:59;19.52;;;15.48;;
52188;SDS011;38162;45.926;13.608;2022-11-20T15:52:25;17.77;;;14.25;;
52188;SDS011;38162;45.926;13.608;2022-11-20T15:54:51;16.80;;;14.55;;
52188;SDS011;38162;45.926;13.608;2022-11-20T15:57:16;10.25;;;7.82;;
52188;SDS011;38162;45.926;13.608;2022-11-20T15:59:42;8.63;;;7.18;;
52188;SDS011;38162;45.926;13.608;2022-11-20T16:02:11;8.63;;;7.38;;
52188;SDS011;38162;45.926;13.608;2022-11-20T16:04:38;5.97;;;4.72;;
52188;SDS011;38162;45.926;13.608;2022-11-20T16:07:04;4.40;;;3.80;;
52188;SDS011;38162;45.926;13.608;2022-11-20T16:09:29;4.22;;;3.00;;
52188;SDS011;38162;45.926;13.608;2022-11-20T16:11:55;4.10;;;3.05;;
52188;SDS011;38162;45.926;13.608;2022-11-20T16:14:23;4.00;;;2.40;;
52188;SDS011;38162;45.926;13.608;2022-11-20T16:17:06;4.33;;;2.67;;
52188;SDS011;38162;45.926;13.608;2022-11-20T16:19:32;4.97;;;2.60;;
52188;SDS011;38162;45.926;13.608;2022-11-20T16:21:58;3.17;;;2.30;;
52188;SDS011;38162;45.926;13.608;2022-11-20T16:24:26;3.40;;;2.33;;
52188;SDS011;38162;45.926;13.608;2022-11-20T16:26:52;3.00;;;1.73;;
52188;SDS011;38162;45.926;13.608;2022-11-20T16:29:18;3.65;;;2.00;;